createdAt,value
2019-03-05T00:02:13.633Z,99770.64
2019-03-05T00:04:39.602Z,99762.92
2019-03-05T00:07:05.649Z,99768.01
2019-03-05T00:09:31.627Z,99767.34
2019-03-05T00:11:57.637Z,99768.66
2019-03-05T00:14:23.638Z,99763.89
2019-03-05T00:16:50.680Z,99771.29
2019-03-05T00:19:16.680Z,99768.84
2019-03-05T00:21:42.651Z,99765.39
2019-03-05T00:24:08.642Z,99767.17
2019-03-05T00:26:34.617Z,99767.17
2019-03-05T00:29:00.734Z,99766.85
2019-03-05T00:31:26.846Z,99765.22
2019-03-05T00:33:52.841Z,99777.06
2019-03-05T00:36:18.920Z,99774.90
2019-03-05T00:38:44.905Z,99779.34
2019-03-05T00:41:10.885Z,99778.52
2019-03-05T00:43:36.867Z,99789.88
2019-03-05T00:46:03.948Z,99789.88
2019-03-05T00:48:29.942Z,99789.05
2019-03-05T00:50:55.938Z,99796.59
2019-03-05T00:53:21.901Z,99791.02
2019-03-05T00:55:49.811Z,99789.70
2019-03-05T00:58:15.620Z,99792.33
2019-03-05T01:00:41.616Z,99788.06
2019-03-05T01:03:07.605Z,99791.16
2019-03-05T01:05:33.624Z,99789.03
2019-03-05T01:07:59.674Z,99796.11
2019-03-05T01:10:25.705Z,99783.09
2019-03-05T01:12:51.681Z,99791.98
2019-03-05T01:15:17.674Z,99791.48
2019-03-05T01:17:43.664Z,99803.83
2019-03-05T01:20:09.656Z,99803.02
2019-03-05T01:22:35.681Z,99807.45
2019-03-05T01:25:01.655Z,99811.88
2019-03-05T01:27:27.670Z,99810.09
2019-03-05T01:29:53.688Z,99812.86
2019-03-05T01:32:19.691Z,99808.10
2019-03-05T01:34:45.661Z,99808.60
2019-03-05T01:37:11.673Z,99813.02
2019-03-05T01:39:37.992Z,99814.68
2019-03-05T01:42:04.003Z,99820.59
2019-03-05T01:44:29.992Z,99821.91
2019-03-05T01:46:55.967Z,99827.98
2019-03-05T01:49:21.997Z,99825.85
2019-03-05T01:51:48.044Z,99826.34
2019-03-05T01:54:14.028Z,99817.60
2019-03-05T01:56:40.064Z,99829.94
2019-03-05T01:59:06.063Z,99820.91
2019-03-05T02:01:32.037Z,99829.12
2019-03-05T02:03:58.016Z,99832.75
2019-03-05T02:06:23.994Z,99829.27
2019-03-05T02:08:49.967Z,99826.64
2019-03-05T02:11:15.960Z,99821.88
2019-03-05T02:13:41.976Z,99827.64
2019-03-05T02:16:07.980Z,99826.81
2019-03-05T02:18:33.983Z,99835.67
2019-03-05T02:20:59.961Z,99829.95
2019-03-05T02:23:25.951Z,99833.39
2019-03-05T02:25:51.930Z,99830.77
2019-03-05T02:28:17.900Z,99840.64
2019-03-05T02:30:43.884Z,99832.58
2019-03-05T02:33:09.869Z,99842.60
2019-03-05T02:35:35.866Z,99836.70
2019-03-05T02:38:05.501Z,99843.63
2019-03-05T02:40:29.607Z,99837.86
2019-03-05T02:42:55.684Z,99833.28
2019-03-05T02:45:21.665Z,99842.31
2019-03-05T02:47:47.656Z,99839.67
2019-03-05T02:50:13.651Z,99839.53
2019-03-05T02:52:39.637Z,99832.80
2019-03-05T02:55:05.623Z,99832.63
2019-03-05T02:57:31.660Z,99834.77
2019-03-05T02:59:57.704Z,99829.50
2019-03-05T03:02:24.858Z,99842.51
2019-03-05T03:04:50.914Z,99833.47
2019-03-05T03:07:16.927Z,99836.45
2019-03-05T03:09:42.917Z,99838.09
2019-03-05T03:12:08.896Z,99834.95
2019-03-05T03:14:34.883Z,99833.14
2019-03-05T03:17:00.861Z,99833.50
2019-03-05T03:19:26.866Z,99837.45
2019-03-05T03:21:52.882Z,99823.78
2019-03-05T03:24:18.858Z,99834.17
2019-03-05T03:26:44.861Z,99836.45
2019-03-05T03:29:10.852Z,99833.67
2019-03-05T03:31:36.853Z,99834.98
2019-03-05T03:34:02.844Z,99834.80
2019-03-05T03:36:29.880Z,99833.48
2019-03-05T03:38:55.865Z,99845.34
2019-03-05T03:41:21.886Z,99840.07
2019-03-05T03:43:47.914Z,99857.03
2019-03-05T03:46:13.885Z,99863.97
2019-03-05T03:48:39.916Z,99861.80
2019-03-05T03:51:05.972Z,99872.19
2019-03-05T03:53:31.959Z,99883.22
2019-03-05T03:55:57.948Z,99879.94
2019-03-05T03:58:23.925Z,99865.92
2019-03-05T04:00:49.936Z,99871.69
2019-03-05T04:03:16.004Z,99866.77
2019-03-05T04:05:41.983Z,99857.06
2019-03-05T04:08:10.292Z,99857.56
2019-03-05T04:10:35.671Z,99855.74
2019-03-05T04:13:01.672Z,99859.20
2019-03-05T04:15:27.655Z,99857.38
2019-03-05T04:17:53.636Z,99860.83
2019-03-05T04:20:19.712Z,99860.83
2019-03-05T04:22:45.768Z,99865.16
2019-03-05T04:25:11.823Z,99861.22
2019-03-05T04:27:37.934Z,99868.61
2019-03-05T04:30:03.992Z,99864.16
2019-03-05T04:32:29.976Z,99857.09
2019-03-05T04:34:55.970Z,99859.57
2019-03-05T04:37:21.952Z,99854.30
2019-03-05T04:39:47.955Z,99853.48
2019-03-05T04:42:13.951Z,99858.25
2019-03-05T04:44:39.920Z,99862.55
2019-03-05T04:47:05.913Z,99862.55
2019-03-05T04:49:31.957Z,99858.11
2019-03-05T04:51:57.949Z,99859.42
2019-03-05T04:54:23.931Z,99857.61
2019-03-05T04:56:49.927Z,99862.88
2019-03-05T04:59:15.909Z,99857.61
2019-03-05T05:01:41.932Z,99857.92
2019-03-05T05:04:07.918Z,99861.41
2019-03-05T05:06:33.886Z,99862.38
2019-03-05T05:08:59.900Z,99861.06
2019-03-05T05:11:25.875Z,99860.09
2019-03-05T05:13:51.951Z,99851.70
2019-03-05T05:16:17.933Z,99862.73
2019-03-05T05:18:43.914Z,99864.86
2019-03-05T05:21:09.886Z,99878.53
2019-03-05T05:23:35.875Z,99870.13
2019-03-05T05:26:01.876Z,99872.77
2019-03-05T05:28:27.857Z,99875.05
2019-03-05T05:30:53.836Z,99873.26
2019-03-05T05:33:19.855Z,99875.05
2019-03-05T05:35:45.826Z,99865.51
2019-03-05T05:38:11.836Z,99865.83
2019-03-05T05:40:37.880Z,99860.56
2019-03-05T05:43:03.872Z,99864.04
2019-03-05T05:45:29.995Z,99863.20
2019-03-05T05:47:55.968Z,99860.56
2019-03-05T05:50:21.946Z,99864.36
2019-03-05T05:52:47.919Z,99869.13
2019-03-05T05:55:13.991Z,99858.59
2019-03-05T05:57:39.964Z,99858.59
2019-03-05T06:00:06.046Z,99862.55
2019-03-05T06:02:32.065Z,99852.02
2019-03-05T06:04:58.101Z,99855.00
2019-03-05T06:07:24.152Z,99854.15
2019-03-05T06:09:50.135Z,99857.63
2019-03-05T06:12:16.127Z,99865.03
2019-03-05T06:14:42.097Z,99866.35
2019-03-05T06:17:08.098Z,99872.93
2019-03-05T06:19:34.069Z,99877.70
2019-03-05T06:22:00.168Z,99875.89
2019-03-05T06:24:26.171Z,99873.25
2019-03-05T06:26:52.147Z,99877.20
2019-03-05T06:29:18.170Z,99879.34
2019-03-05T06:31:44.157Z,99891.19
2019-03-05T06:34:10.129Z,99892.85
2019-03-05T06:36:36.224Z,99896.80
2019-03-05T06:39:02.232Z,99897.30
2019-03-05T06:41:28.236Z,99890.72
2019-03-05T06:43:54.201Z,99890.37
2019-03-05T06:46:20.180Z,99891.69
2019-03-05T06:48:46.159Z,99886.42
2019-03-05T06:51:12.142Z,99882.47
2019-03-05T06:53:38.120Z,99885.92
2019-03-05T06:56:04.124Z,99890.05
2019-03-05T06:58:30.120Z,99885.28
2019-03-05T07:00:56.112Z,99886.42
2019-03-05T07:03:22.105Z,99887.41
2019-03-05T07:05:48.099Z,99889.88
2019-03-05T07:08:15.739Z,99888.55
2019-03-05T07:10:42.743Z,99894.17
2019-03-05T07:13:08.803Z,99906.84
2019-03-05T07:15:34.785Z,99901.08
2019-03-05T07:18:00.773Z,99907.02
2019-03-05T07:20:26.765Z,99906.69
2019-03-05T07:22:52.750Z,99911.95
2019-03-05T07:25:18.747Z,99917.55
2019-03-05T07:27:44.728Z,99917.55
2019-03-05T07:30:10.743Z,99923.16
2019-03-05T07:32:36.754Z,99924.13
2019-03-05T07:35:02.748Z,99929.39
2019-03-05T07:37:28.791Z,99931.53
2019-03-05T07:39:54.868Z,99933.34
2019-03-05T07:42:20.856Z,99928.90
2019-03-05T07:44:46.840Z,99938.61
2019-03-05T07:47:12.800Z,99941.39
2019-03-05T07:49:43.786Z,99948.83
2019-03-05T07:52:06.520Z,99946.87
2019-03-05T07:54:32.515Z,99942.42
2019-03-05T07:56:59.504Z,99956.41
2019-03-05T07:59:25.493Z,99957.22
2019-03-05T08:01:51.557Z,99961.02
2019-03-05T08:04:17.542Z,99955.41
2019-03-05T08:06:43.620Z,99955.41
2019-03-05T08:09:09.603Z,99956.72
2019-03-05T08:11:35.690Z,99954.94
2019-03-05T08:14:01.676Z,99954.59
2019-03-05T08:16:27.748Z,99969.89
2019-03-05T08:18:53.724Z,99974.20
2019-03-05T08:21:19.714Z,99979.46
2019-03-05T08:23:48.269Z,99971.20
2019-03-05T08:26:13.406Z,99974.69
2019-03-05T08:28:39.436Z,99974.69
2019-03-05T08:31:05.459Z,99977.33
2019-03-05T08:33:31.458Z,99977.80
2019-03-05T08:35:57.549Z,99979.96
2019-03-05T08:38:23.664Z,99987.86
2019-03-05T08:40:49.650Z,99987.86
2019-03-05T08:43:15.649Z,100002.17
2019-03-05T08:45:41.739Z,100009.25
2019-03-05T08:48:07.720Z,100002.67
2019-03-05T08:50:33.757Z,100001.35
2019-03-05T08:52:59.741Z,100011.56
2019-03-05T08:55:25.719Z,100011.06
2019-03-05T08:57:51.696Z,100003.17
2019-03-05T09:00:17.687Z,100004.13
2019-03-05T09:02:48.669Z,100009.40
2019-03-05T09:05:11.606Z,100007.12
2019-03-05T09:07:37.597Z,100005.12
2019-03-05T09:10:03.651Z,100014.66
2019-03-05T09:12:29.693Z,100019.94
2019-03-05T09:14:55.690Z,100022.56
2019-03-05T09:17:21.739Z,100016.48
2019-03-05T09:19:47.731Z,100025.70
2019-03-05T09:22:13.799Z,100021.60
2019-03-05T09:24:39.810Z,100022.56
2019-03-05T09:27:05.807Z,100032.45
2019-03-05T09:29:31.800Z,100029.50
2019-03-05T09:31:57.792Z,100034.27
2019-03-05T09:34:23.797Z,100030.32
2019-03-05T09:36:51.242Z,100034.45
2019-03-05T09:39:17.614Z,100035.62
2019-03-05T09:41:43.615Z,100038.91
2019-03-05T09:44:09.699Z,100038.75
2019-03-05T09:46:35.745Z,100043.87
2019-03-05T09:49:01.792Z,100042.73
2019-03-05T09:51:27.824Z,100047.36
2019-03-05T09:53:53.833Z,100044.06
2019-03-05T09:56:19.887Z,100039.46
2019-03-05T09:58:45.988Z,100046.72
2019-03-05T10:01:12.986Z,100043.45
2019-03-05T10:03:39.093Z,100052.52
2019-03-05T10:06:05.168Z,100052.34
2019-03-05T10:08:32.820Z,100060.28
2019-03-05T10:10:59.040Z,100058.46
2019-03-05T10:13:25.069Z,100054.69
2019-03-05T10:15:53.405Z,100047.13
2019-03-05T10:18:18.812Z,100045.31
2019-03-05T10:20:44.805Z,100043.82
2019-03-05T10:23:15.186Z,100049.44
2019-03-05T10:25:43.409Z,100047.13
2019-03-05T10:28:15.289Z,100051.25
2019-03-05T10:30:41.296Z,100058.20
2019-03-05T10:33:09.411Z,100061.00
2019-03-05T10:35:38.698Z,100059.51
2019-03-05T10:40:39.761Z,100069.26
2019-03-05T10:45:37.365Z,100063.66
2019-03-05T10:48:08.437Z,100064.02
2019-03-05T10:50:36.485Z,100069.11
2019-03-05T10:53:06.025Z,100069.46
2019-03-05T10:55:49.122Z,100072.41
2019-03-05T10:58:16.405Z,100073.09
2019-03-05T11:05:46.248Z,100079.38
2019-03-05T11:08:12.323Z,100076.59
2019-03-05T11:10:41.025Z,100080.72
2019-03-05T11:18:09.957Z,100081.27
2019-03-05T11:25:46.111Z,100082.91
2019-03-05T11:36:00.597Z,100082.26
2019-03-05T11:38:26.693Z,100089.52
2019-03-05T11:40:52.788Z,100096.75
2019-03-05T11:43:18.924Z,100097.10
2019-03-05T11:45:49.472Z,100099.41
2019-03-05T11:48:15.723Z,100097.95
2019-03-05T11:50:41.952Z,100099.77
2019-03-05T11:53:08.124Z,100105.51
2019-03-05T12:00:49.955Z,100107.16
2019-03-05T12:03:16.236Z,100106.34
2019-03-05T12:05:42.316Z,100102.20
2019-03-05T12:08:08.611Z,100115.39
2019-03-05T12:13:05.975Z,100112.23
2019-03-05T12:15:32.227Z,100115.37
2019-03-05T12:17:58.370Z,100117.34
2019-03-05T12:20:24.517Z,100112.24
2019-03-05T12:22:50.745Z,100106.61
2019-03-05T12:35:40.893Z,100101.29
2019-03-05T12:38:10.826Z,100113.30
2019-03-05T12:40:36.911Z,100116.44
2019-03-05T12:45:34.344Z,100120.22
2019-03-05T12:48:00.681Z,100117.73
2019-03-05T12:50:26.845Z,100119.55
2019-03-05T12:52:53.125Z,100113.12
2019-03-05T13:00:34.344Z,100110.14
2019-03-05T13:03:00.562Z,100119.87
2019-03-05T13:10:34.868Z,100143.73
2019-03-05T13:12:58.058Z,100141.77
2019-03-05T13:18:07.970Z,100147.70
2019-03-05T13:20:34.148Z,100163.01
2019-03-05T13:23:00.351Z,100160.02
2019-03-05T13:25:28.657Z,100159.20
2019-03-05T13:28:10.511Z,100154.42
2019-03-05T13:30:36.740Z,100152.29
2019-03-05T13:33:02.979Z,100149.30
2019-03-05T13:35:30.470Z,100153.75
2019-03-05T13:37:58.700Z,100157.39
2019-03-05T13:40:24.937Z,100153.92
2019-03-05T13:42:51.161Z,100156.56
2019-03-05T13:45:24.467Z,100151.94
2019-03-05T13:47:50.667Z,100164.61
2019-03-05T13:50:16.861Z,100171.20
2019-03-05T13:52:43.078Z,100170.88
2019-03-05T13:55:09.329Z,100187.02
2019-03-05T13:57:35.586Z,100183.56
2019-03-05T14:02:39.413Z,100188.02
2019-03-05T14:05:10.680Z,100190.65
2019-03-05T14:12:51.259Z,100199.66
2019-03-05T14:18:03.315Z,100197.03
2019-03-05T14:20:31.899Z,100206.75
2019-03-05T14:22:57.528Z,100203.62
2019-03-05T14:25:23.757Z,100210.70
2019-03-05T14:27:49.994Z,100213.02
2019-03-05T14:30:16.175Z,100210.37
2019-03-05T14:32:42.464Z,100212.20
2019-03-05T14:35:08.761Z,100218.78
2019-03-05T14:37:34.964Z,100222.73
2019-03-05T14:40:22.804Z,100222.38
2019-03-05T14:42:31.091Z,100226.02
2019-03-05T14:44:57.410Z,100231.28
2019-03-05T14:47:23.594Z,100222.06
2019-03-05T14:54:53.390Z,100232.25
2019-03-05T14:57:26.920Z,100234.06
2019-03-05T15:02:25.217Z,100241.47
2019-03-05T15:07:35.334Z,100233.24
2019-03-05T15:10:01.561Z,100239.83
2019-03-05T15:12:28.013Z,100238.52
2019-03-05T15:19:59.768Z,100239.83
2019-03-05T15:25:10.248Z,100237.19
2019-03-05T15:27:44.617Z,100246.09
2019-03-05T15:30:10.794Z,100244.42
2019-03-05T15:32:37.253Z,100244.77
2019-03-05T15:35:03.405Z,100243.45
2019-03-05T15:37:29.579Z,100245.23
2019-03-05T15:39:55.772Z,100250.05
2019-03-05T15:44:53.103Z,100247.09
2019-03-05T15:47:19.197Z,100250.41
2019-03-05T15:49:45.356Z,100249.74
2019-03-05T15:52:12.834Z,100249.95
2019-03-05T15:54:38.999Z,100249.78
2019-03-05T15:57:06.007Z,100241.88
2019-03-05T15:59:34.404Z,100249.28
2019-03-05T16:02:01.464Z,100250.28
2019-03-05T16:04:27.598Z,100254.55
2019-03-05T16:06:53.708Z,100258.19
2019-03-05T16:09:19.896Z,100255.55
2019-03-05T16:11:46.061Z,100251.59
2019-03-05T16:14:12.262Z,100256.05
2019-03-05T16:16:38.443Z,100254.37
2019-03-05T16:19:04.609Z,100256.05
2019-03-05T16:21:30.812Z,100255.22
2019-03-05T16:23:57.023Z,100254.37
2019-03-05T16:26:24.681Z,100257.51
2019-03-05T16:28:51.034Z,100260.28
2019-03-05T16:31:17.198Z,100262.92
2019-03-05T16:33:45.632Z,100269.51
2019-03-05T16:36:12.928Z,100270.00
2019-03-05T16:38:39.098Z,100270.17
2019-03-05T16:41:07.521Z,100269.18
2019-03-05T16:43:33.735Z,100275.45
2019-03-05T16:45:59.906Z,100279.86
2019-03-05T16:48:26.053Z,100278.55
2019-03-05T16:50:52.171Z,100286.95
2019-03-05T16:53:18.369Z,100291.27
2019-03-05T16:55:44.523Z,100289.59
2019-03-05T16:58:10.691Z,100294.04
2019-03-05T17:00:36.919Z,100298.48
2019-03-05T17:03:03.152Z,100304.25
2019-03-05T17:05:29.412Z,100310.84
2019-03-05T17:07:55.527Z,100309.99
2019-03-05T17:10:21.853Z,100316.94
2019-03-05T17:12:48.041Z,100321.85
2019-03-05T17:15:14.433Z,100322.70
2019-03-05T17:17:40.621Z,100321.52
2019-03-05T17:20:06.763Z,100330.75
2019-03-05T17:22:33.026Z,100329.43
2019-03-05T17:24:59.259Z,100324.66
2019-03-05T17:27:25.433Z,100325.16
2019-03-05T17:29:52.170Z,100334.38
2019-03-05T17:32:18.380Z,100338.33
2019-03-05T17:34:44.703Z,100340.61
2019-03-05T17:37:10.883Z,100346.70
2019-03-05T17:39:37.156Z,100349.83
2019-03-05T17:42:03.484Z,100354.61
2019-03-05T17:44:29.884Z,100354.14
2019-03-05T17:46:56.086Z,100358.09
2019-03-05T17:49:22.258Z,100358.09
2019-03-05T17:51:48.568Z,100370.42
2019-03-05T17:54:14.735Z,100375.69
2019-03-05T17:56:41.967Z,100378.69
2019-03-05T17:59:08.258Z,100368.64
2019-03-05T18:01:34.586Z,100370.78
2019-03-05T18:04:00.776Z,100373.41
2019-03-05T18:06:26.923Z,100383.13
2019-03-05T18:08:53.145Z,100383.59
2019-03-05T18:11:19.316Z,100391.04
2019-03-05T18:13:45.807Z,100389.23
2019-03-05T18:16:12.063Z,100393.67
2019-03-05T18:18:38.245Z,100391.50
2019-03-05T18:21:04.490Z,100397.63
2019-03-05T18:23:30.596Z,100396.77
2019-03-05T18:25:56.782Z,100403.86
2019-03-05T18:28:23.280Z,100406.98
2019-03-05T18:30:49.544Z,100410.45
2019-03-05T18:33:15.873Z,100416.21
2019-03-05T18:35:42.025Z,100422.80
2019-03-05T18:38:08.243Z,100421.98
2019-03-05T18:40:34.486Z,100424.12
2019-03-05T18:43:00.945Z,100422.80
2019-03-05T18:45:28.199Z,100429.06
2019-03-05T18:47:54.571Z,100437.93
2019-03-05T18:50:20.798Z,100437.59
2019-03-05T18:52:46.984Z,100441.06
2019-03-05T18:55:13.237Z,100440.56
2019-03-05T18:57:39.387Z,100436.28
2019-03-05T19:00:05.582Z,100430.66
2019-03-05T19:02:31.780Z,100433.65
2019-03-05T19:04:57.995Z,100431.97
2019-03-05T19:07:24.251Z,100429.83
2019-03-05T19:09:50.459Z,100436.42
2019-03-05T19:12:16.740Z,100437.41
2019-03-05T19:14:42.916Z,100433.45
2019-03-05T19:17:09.274Z,100441.83
2019-03-05T19:19:35.469Z,100444.46
2019-03-05T19:22:01.720Z,100452.37
2019-03-05T19:24:28.942Z,100450.23
2019-03-05T19:26:55.235Z,100454.18
2019-03-05T19:29:21.418Z,100453.36
2019-03-05T19:31:47.617Z,100458.63
2019-03-05T19:34:13.830Z,100463.41
2019-03-05T19:36:39.999Z,100459.12
2019-03-05T19:39:06.189Z,100456.12
2019-03-05T19:41:32.412Z,100455.66
2019-03-05T19:43:58.746Z,100454.81
2019-03-05T19:46:25.025Z,100461.89
2019-03-05T19:48:51.222Z,100466.66
2019-03-05T19:51:17.361Z,100464.89
2019-03-05T19:53:43.598Z,100462.72
2019-03-05T19:56:09.785Z,100463.08
2019-03-05T19:58:36.061Z,100462.58
2019-03-05T20:01:02.285Z,100456.48
2019-03-05T20:03:28.449Z,100463.41
2019-03-05T20:05:54.687Z,100464.39
2019-03-05T20:08:20.891Z,100465.54
2019-03-05T20:10:47.125Z,100465.22
2019-03-05T20:13:13.486Z,100463.89
2019-03-05T20:15:41.143Z,100454.67
2019-03-05T20:18:07.591Z,100456.81
2019-03-05T20:20:33.741Z,100455.66
2019-03-05T20:22:59.971Z,100451.71
2019-03-05T20:25:26.224Z,100452.53
2019-03-05T20:27:52.890Z,100457.31
2019-03-05T20:30:19.079Z,100449.90
2019-03-05T20:32:45.224Z,100453.49
2019-03-05T20:35:11.421Z,100454.81
2019-03-05T20:37:38.706Z,100454.81
2019-03-05T20:40:04.847Z,100456.63
2019-03-05T20:42:31.292Z,100461.39
2019-03-05T20:44:57.393Z,100455.66
2019-03-05T20:47:23.534Z,100464.72
2019-03-05T20:49:49.716Z,100468.38
2019-03-05T20:52:15.800Z,100472.19
2019-03-05T20:54:41.922Z,100473.02
2019-03-05T20:57:07.982Z,100468.42
2019-03-05T20:59:34.388Z,100464.83
2019-03-05T21:02:00.461Z,100462.66
2019-03-05T21:04:26.467Z,100466.97
2019-03-05T21:06:52.486Z,100460.87
2019-03-05T21:09:18.482Z,100454.29
2019-03-05T21:11:44.594Z,100454.29
2019-03-05T21:14:10.618Z,100460.38
2019-03-05T21:16:37.556Z,100458.24
2019-03-05T21:19:03.614Z,100460.87
2019-03-05T21:21:29.699Z,100459.56
2019-03-05T21:23:55.747Z,100458.70
2019-03-05T21:26:21.902Z,100459.20
2019-03-05T21:28:47.954Z,100464.47
2019-03-05T21:31:14.314Z,100468.42
2019-03-05T21:33:40.348Z,100458.88
2019-03-05T21:36:07.044Z,100461.51
2019-03-05T21:38:33.030Z,100466.91
2019-03-05T21:41:00.164Z,100468.73
2019-03-05T21:43:26.307Z,100467.55
2019-03-05T21:45:52.302Z,100472.81
2019-03-05T21:48:18.371Z,100464.09
2019-03-05T21:50:44.508Z,100465.08
2019-03-05T21:53:10.640Z,100470.35
2019-03-05T21:55:36.687Z,100464.72
2019-03-05T21:58:02.751Z,100465.71
2019-03-05T22:00:28.787Z,100458.77
2019-03-05T22:02:54.825Z,100456.63
2019-03-05T22:05:20.817Z,100460.58
2019-03-05T22:07:48.806Z,100466.34
2019-03-05T22:10:15.161Z,100464.70
2019-03-05T22:12:41.223Z,100466.97
2019-03-05T22:15:07.227Z,100463.02
2019-03-05T22:17:33.312Z,100461.38
2019-03-05T22:19:59.386Z,100463.64
2019-03-05T22:22:25.401Z,100461.02
2019-03-05T22:24:51.421Z,100458.88
2019-03-05T22:27:17.507Z,100455.91
2019-03-05T22:29:43.838Z,100460.33
2019-03-05T22:32:10.692Z,100462.13
2019-03-05T22:34:36.685Z,100452.59
2019-03-05T22:37:02.722Z,100454.40
2019-03-05T22:39:28.754Z,100453.55
2019-03-05T22:41:54.795Z,100446.95
2019-03-05T22:44:21.209Z,100450.58
2019-03-05T22:46:47.228Z,100451.08
2019-03-05T22:49:13.222Z,100448.44
2019-03-05T22:51:39.327Z,100440.54
2019-03-05T22:54:05.636Z,100439.72
2019-03-05T22:56:31.842Z,100434.09
2019-03-05T22:58:57.874Z,100432.44
2019-03-05T23:01:23.894Z,100434.25
2019-03-05T23:03:49.972Z,100436.39
2019-03-05T23:06:17.070Z,100435.70
2019-03-05T23:08:43.092Z,100443.61
2019-03-05T23:11:09.185Z,100445.75
2019-03-05T23:13:35.295Z,100440.16
2019-03-05T23:16:01.398Z,100443.74
2019-03-05T23:18:27.540Z,100437.66
2019-03-05T23:20:53.537Z,100432.88
2019-03-05T23:23:19.722Z,100431.89
2019-03-05T23:25:46.224Z,100431.20
2019-03-05T23:28:12.332Z,100425.93
2019-03-05T23:30:38.727Z,100424.28
2019-03-05T23:33:06.020Z,100421.33
2019-03-05T23:35:32.084Z,100422.64
2019-03-05T23:37:58.323Z,100422.28
2019-03-05T23:40:25.136Z,100422.28
2019-03-05T23:42:51.142Z,100421.46
2019-03-05T23:45:17.718Z,100427.22
2019-03-05T23:47:47.122Z,100424.23
2019-03-05T23:50:13.220Z,100416.82
2019-03-05T23:52:39.350Z,100418.96
2019-03-05T23:55:05.379Z,100416.98
2019-03-05T23:57:31.465Z,100413.37
2019-03-05T23:59:58.482Z,100420.45
